sensor_id;sensor_type;location;lat;lon;timestamp;temperature;humidity
21861;DHT22;11095;48.066;8.540;2022-10-16T00:01:18;12.20;99.90
21861;DHT22;11095;48.066;8.540;2022-10-16T00:03:44;12.20;99.90
21861;DHT22;11095;48.066;8.540;2022-10-16T00:06:11;12.30;99.90
21861;DHT22;11095;48.066;8.540;2022-10-16T00:08:38;12.30;99.90
21861;DHT22;11095;48.066;8.540;2022-10-16T00:11:09;12.30;99.90
21861;DHT22;11095;48.066;8.540;2022-10-16T00:13:36;12.30;99.90
21861;DHT22;11095;48.066;8.540;2022-10-16T00:16:03;12.40;99.90
21861;DHT22;11095;48.066;8.540;2022-10-16T00:18:30;12.40;99.90
21861;DHT22;11095;48.066;8.540;2022-10-16T00:21:00;12.40;99.90
21861;DHT22;11095;48.066;8.540;2022-10-16T00:23:26;12.50;99.90
21861;DHT22;11095;48.066;8.540;2022-10-16T00:26:00;12.50;99.90
21861;DHT22;11095;48.066;8.540;2022-10-16T00:28:26;12.50;99.90
21861;DHT22;11095;48.066;8.540;2022-10-16T00:30:52;12.50;99.90
21861;DHT22;11095;48.066;8.540;2022-10-16T00:33:19;12.50;99.90
21861;DHT22;11095;48.066;8.540;2022-10-16T00:35:45;12.60;99.90
21861;DHT22;11095;48.066;8.540;2022-10-16T00:38:11;12.60;99.90
21861;DHT22;11095;48.066;8.540;2022-10-16T00:40:37;12.60;99.90
21861;DHT22;11095;48.066;8.540;2022-10-16T00:43:02;12.60;99.90
21861;DHT22;11095;48.066;8.540;2022-10-16T00:45:28;12.60;99.90
21861;DHT22;11095;48.066;8.540;2022-10-16T00:47:55;12.60;99.90
21861;DHT22;11095;48.066;8.540;2022-10-16T00:50:33;12.60;99.90
21861;DHT22;11095;48.066;8.540;2022-10-16T00:53:00;12.60;99.90
21861;DHT22;11095;48.066;8.540;2022-10-16T00:55:27;12.60;99.90
21861;DHT22;11095;48.066;8.540;2022-10-16T00:57:56;12.60;99.90
21861;DHT22;11095;48.066;8.540;2022-10-16T01:00:25;12.60;99.90
21861;DHT22;11095;48.066;8.540;2022-10-16T01:02:56;12.60;99.90
21861;DHT22;11095;48.066;8.540;2022-10-16T01:05:23;12.60;99.90
21861;DHT22;11095;48.066;8.540;2022-10-16T01:08:11;12.60;99.90
21861;DHT22;11095;48.066;8.540;2022-10-16T01:13:57;12.60;99.90
21861;DHT22;11095;48.066;8.540;2022-10-16T01:16:44;12.70;99.90
21861;DHT22;11095;48.066;8.540;2022-10-16T01:19:29;12.70;99.90
21861;DHT22;11095;48.066;8.540;2022-10-16T01:21:58;12.70;99.90
21861;DHT22;11095;48.066;8.540;2022-10-16T01:29:54;12.70;99.90
21861;DHT22;11095;48.066;8.540;2022-10-16T01:35:47;12.70;99.90
21861;DHT22;11095;48.066;8.540;2022-10-16T01:38:21;12.70;99.90
21861;DHT22;11095;48.066;8.540;2022-10-16T01:40:52;12.70;99.90
21861;DHT22;11095;48.066;8.540;2022-10-16T01:43:28;12.70;99.90
21861;DHT22;11095;48.066;8.540;2022-10-16T01:45:57;12.70;99.90
21861;DHT22;11095;48.066;8.540;2022-10-16T01:48:24;12.70;99.90
21861;DHT22;11095;48.066;8.540;2022-10-16T01:51:01;12.80;99.90
21861;DHT22;11095;48.066;8.540;2022-10-16T01:53:28;12.80;99.90
21861;DHT22;11095;48.066;8.540;2022-10-16T01:55:55;12.80;99.90
21861;DHT22;11095;48.066;8.540;2022-10-16T01:58:24;12.80;99.90
21861;DHT22;11095;48.066;8.540;2022-10-16T02:00:51;12.80;99.90
21861;DHT22;11095;48.066;8.540;2022-10-16T02:03:19;12.80;99.90
21861;DHT22;11095;48.066;8.540;2022-10-16T02:05:49;12.80;99.90
21861;DHT22;11095;48.066;8.540;2022-10-16T02:08:17;12.80;99.90
21861;DHT22;11095;48.066;8.540;2022-10-16T02:10:43;12.80;99.90
21861;DHT22;11095;48.066;8.540;2022-10-16T02:13:18;12.80;99.90
21861;DHT22;11095;48.066;8.540;2022-10-16T02:15:45;12.80;99.90
21861;DHT22;11095;48.066;8.540;2022-10-16T02:18:11;12.80;99.90
21861;DHT22;11095;48.066;8.540;2022-10-16T02:26:13;12.70;99.90
21861;DHT22;11095;48.066;8.540;2022-10-16T02:28:45;12.70;99.90
21861;DHT22;11095;48.066;8.540;2022-10-16T02:31:16;12.70;99.90
21861;DHT22;11095;48.066;8.540;2022-10-16T02:33:44;12.70;99.90
21861;DHT22;11095;48.066;8.540;2022-10-16T02:36:11;12.70;99.90
21861;DHT22;11095;48.066;8.540;2022-10-16T02:38:38;12.70;99.90
21861;DHT22;11095;48.066;8.540;2022-10-16T02:41:04;12.70;99.90
21861;DHT22;11095;48.066;8.540;2022-10-16T02:43:30;12.70;99.90
21861;DHT22;11095;48.066;8.540;2022-10-16T02:45:55;12.70;99.90
21861;DHT22;11095;48.066;8.540;2022-10-16T02:48:21;12.70;99.90
21861;DHT22;11095;48.066;8.540;2022-10-16T02:50:47;12.60;99.90
21861;DHT22;11095;48.066;8.540;2022-10-16T02:53:12;12.60;99.90
21861;DHT22;11095;48.066;8.540;2022-10-16T02:55:38;12.60;99.90
21861;DHT22;11095;48.066;8.540;2022-10-16T02:58:03;12.60;99.90
21861;DHT22;11095;48.066;8.540;2022-10-16T03:00:29;12.60;99.90
21861;DHT22;11095;48.066;8.540;2022-10-16T03:02:55;12.60;99.90
21861;DHT22;11095;48.066;8.540;2022-10-16T03:05:20;12.60;99.90
21861;DHT22;11095;48.066;8.540;2022-10-16T03:07:46;12.60;99.90
21861;DHT22;11095;48.066;8.540;2022-10-16T03:10:12;12.60;99.90
21861;DHT22;11095;48.066;8.540;2022-10-16T03:12:37;12.50;99.90
21861;DHT22;11095;48.066;8.540;2022-10-16T03:15:03;12.50;99.90
21861;DHT22;11095;48.066;8.540;2022-10-16T03:17:29;12.50;99.90
21861;DHT22;11095;48.066;8.540;2022-10-16T03:19:55;12.50;99.90
21861;DHT22;11095;48.066;8.540;2022-10-16T03:22:20;12.40;99.90
21861;DHT22;11095;48.066;8.540;2022-10-16T03:24:46;12.40;99.90
21861;DHT22;11095;48.066;8.540;2022-10-16T03:27:12;12.40;99.90
21861;DHT22;11095;48.066;8.540;2022-10-16T03:29:37;12.30;99.90
21861;DHT22;11095;48.066;8.540;2022-10-16T03:32:03;12.30;99.90
21861;DHT22;11095;48.066;8.540;2022-10-16T03:34:29;12.30;99.90
21861;DHT22;11095;48.066;8.540;2022-10-16T03:36:54;12.30;99.90
21861;DHT22;11095;48.066;8.540;2022-10-16T03:39:20;12.30;99.90
21861;DHT22;11095;48.066;8.540;2022-10-16T03:41:46;12.30;99.90
21861;DHT22;11095;48.066;8.540;2022-10-16T03:44:12;12.30;99.90
21861;DHT22;11095;48.066;8.540;2022-10-16T03:46:37;12.30;99.90
21861;DHT22;11095;48.066;8.540;2022-10-16T03:49:03;12.40;99.90
21861;DHT22;11095;48.066;8.540;2022-10-16T03:51:29;12.30;99.90
21861;DHT22;11095;48.066;8.540;2022-10-16T03:53:54;12.40;99.90
21861;DHT22;11095;48.066;8.540;2022-10-16T03:56:20;12.30;99.90
21861;DHT22;11095;48.066;8.540;2022-10-16T03:58:46;12.30;99.90
21861;DHT22;11095;48.066;8.540;2022-10-16T04:01:11;12.30;99.90
21861;DHT22;11095;48.066;8.540;2022-10-16T04:03:37;12.40;99.90
21861;DHT22;11095;48.066;8.540;2022-10-16T04:06:03;12.40;99.90
21861;DHT22;11095;48.066;8.540;2022-10-16T04:08:28;12.40;99.90
21861;DHT22;11095;48.066;8.540;2022-10-16T04:10:54;12.40;99.90
21861;DHT22;11095;48.066;8.540;2022-10-16T04:13:20;12.40;99.90
21861;DHT22;11095;48.066;8.540;2022-10-16T04:15:46;12.40;99.90
21861;DHT22;11095;48.066;8.540;2022-10-16T04:18:11;12.50;99.90
21861;DHT22;11095;48.066;8.540;2022-10-16T04:20:37;12.50;99.90
21861;DHT22;11095;48.066;8.540;2022-10-16T04:23:03;12.50;99.90
21861;DHT22;11095;48.066;8.540;2022-10-16T04:25:30;12.50;99.90
21861;DHT22;11095;48.066;8.540;2022-10-16T04:27:56;12.60;99.90
21861;DHT22;11095;48.066;8.540;2022-10-16T04:30:22;12.60;99.90
21861;DHT22;11095;48.066;8.540;2022-10-16T04:32:52;12.60;99.90
21861;DHT22;11095;48.066;8.540;2022-10-16T04:35:18;12.60;99.90
21861;DHT22;11095;48.066;8.540;2022-10-16T04:37:44;12.60;99.90
21861;DHT22;11095;48.066;8.540;2022-10-16T04:40:10;12.60;99.90
21861;DHT22;11095;48.066;8.540;2022-10-16T04:42:36;12.70;99.90
21861;DHT22;11095;48.066;8.540;2022-10-16T04:45:02;12.70;99.90
21861;DHT22;11095;48.066;8.540;2022-10-16T04:47:28;12.60;99.90
21861;DHT22;11095;48.066;8.540;2022-10-16T04:49:54;12.60;99.90
21861;DHT22;11095;48.066;8.540;2022-10-16T04:52:20;12.70;99.90
21861;DHT22;11095;48.066;8.540;2022-10-16T04:54:46;12.70;99.90
21861;DHT22;11095;48.066;8.540;2022-10-16T04:57:12;12.70;99.90
21861;DHT22;11095;48.066;8.540;2022-10-16T04:59:44;12.70;99.90
21861;DHT22;11095;48.066;8.540;2022-10-16T05:02:10;12.60;99.90
21861;DHT22;11095;48.066;8.540;2022-10-16T05:04:35;12.60;99.90
21861;DHT22;11095;48.066;8.540;2022-10-16T05:07:01;12.60;99.90
21861;DHT22;11095;48.066;8.540;2022-10-16T05:09:27;12.60;99.90
21861;DHT22;11095;48.066;8.540;2022-10-16T05:11:52;12.60;99.90
21861;DHT22;11095;48.066;8.540;2022-10-16T05:14:18;12.60;99.90
21861;DHT22;11095;48.066;8.540;2022-10-16T05:16:44;12.60;99.90
21861;DHT22;11095;48.066;8.540;2022-10-16T05:19:09;12.60;99.90
21861;DHT22;11095;48.066;8.540;2022-10-16T05:21:35;12.60;99.90
21861;DHT22;11095;48.066;8.540;2022-10-16T05:24:01;12.50;99.90
21861;DHT22;11095;48.066;8.540;2022-10-16T05:26:26;12.50;99.90
21861;DHT22;11095;48.066;8.540;2022-10-16T05:28:52;12.50;99.90
21861;DHT22;11095;48.066;8.540;2022-10-16T05:31:18;12.50;99.90
21861;DHT22;11095;48.066;8.540;2022-10-16T05:33:43;12.50;99.90
21861;DHT22;11095;48.066;8.540;2022-10-16T05:36:10;12.50;99.90
21861;DHT22;11095;48.066;8.540;2022-10-16T05:38:36;12.50;99.90
21861;DHT22;11095;48.066;8.540;2022-10-16T05:41:03;12.50;99.90
21861;DHT22;11095;48.066;8.540;2022-10-16T05:43:29;12.50;99.90
21861;DHT22;11095;48.066;8.540;2022-10-16T05:45:59;12.50;99.90
21861;DHT22;11095;48.066;8.540;2022-10-16T05:48:25;12.60;99.90
21861;DHT22;11095;48.066;8.540;2022-10-16T05:51:03;12.60;99.90
21861;DHT22;11095;48.066;8.540;2022-10-16T05:53:30;12.60;99.90
21861;DHT22;11095;48.066;8.540;2022-10-16T05:55:56;12.60;99.90
21861;DHT22;11095;48.066;8.540;2022-10-16T05:58:23;12.60;99.90
21861;DHT22;11095;48.066;8.540;2022-10-16T06:00:56;12.60;99.90
21861;DHT22;11095;48.066;8.540;2022-10-16T06:03:22;12.70;99.90
21861;DHT22;11095;48.066;8.540;2022-10-16T06:05:48;12.70;99.90
21861;DHT22;11095;48.066;8.540;2022-10-16T06:08:14;12.70;99.90
21861;DHT22;11095;48.066;8.540;2022-10-16T06:10:39;12.80;99.90
21861;DHT22;11095;48.066;8.540;2022-10-16T06:13:05;12.80;99.90
21861;DHT22;11095;48.066;8.540;2022-10-16T06:15:30;12.90;99.90
21861;DHT22;11095;48.066;8.540;2022-10-16T06:17:56;12.90;99.90
21861;DHT22;11095;48.066;8.540;2022-10-16T06:20:22;12.90;99.90
21861;DHT22;11095;48.066;8.540;2022-10-16T06:22:47;12.90;99.90
21861;DHT22;11095;48.066;8.540;2022-10-16T06:25:13;12.90;99.90
21861;DHT22;11095;48.066;8.540;2022-10-16T06:27:42;12.90;99.90
21861;DHT22;11095;48.066;8.540;2022-10-16T06:30:08;12.90;99.90
21861;DHT22;11095;48.066;8.540;2022-10-16T06:32:33;13.00;99.90
21861;DHT22;11095;48.066;8.540;2022-10-16T06:34:59;13.00;99.90
21861;DHT22;11095;48.066;8.540;2022-10-16T06:37:25;13.10;99.90
21861;DHT22;11095;48.066;8.540;2022-10-16T06:39:51;13.20;99.90
21861;DHT22;11095;48.066;8.540;2022-10-16T06:42:18;13.20;99.90
21861;DHT22;11095;48.066;8.540;2022-10-16T06:44:44;13.20;99.90
21861;DHT22;11095;48.066;8.540;2022-10-16T06:47:09;13.30;99.90
21861;DHT22;11095;48.066;8.540;2022-10-16T06:49:35;13.40;99.90
21861;DHT22;11095;48.066;8.540;2022-10-16T06:52:01;13.40;99.90
21861;DHT22;11095;48.066;8.540;2022-10-16T06:54:27;13.50;99.90
21861;DHT22;11095;48.066;8.540;2022-10-16T06:56:53;13.60;99.90
21861;DHT22;11095;48.066;8.540;2022-10-16T06:59:20;13.60;99.90
21861;DHT22;11095;48.066;8.540;2022-10-16T07:01:46;13.70;99.90
21861;DHT22;11095;48.066;8.540;2022-10-16T07:04:12;13.70;99.90
21861;DHT22;11095;48.066;8.540;2022-10-16T07:06:38;13.80;99.90
21861;DHT22;11095;48.066;8.540;2022-10-16T07:09:06;13.90;99.90
21861;DHT22;11095;48.066;8.540;2022-10-16T07:11:32;14.00;99.90
21861;DHT22;11095;48.066;8.540;2022-10-16T07:13:58;14.10;99.90
21861;DHT22;11095;48.066;8.540;2022-10-16T07:16:29;14.20;99.90
21861;DHT22;11095;48.066;8.540;2022-10-16T07:18:56;14.30;99.90
21861;DHT22;11095;48.066;8.540;2022-10-16T07:21:25;14.40;99.90
21861;DHT22;11095;48.066;8.540;2022-10-16T07:23:53;14.50;99.90
21861;DHT22;11095;48.066;8.540;2022-10-16T07:26:19;14.50;99.90
21861;DHT22;11095;48.066;8.540;2022-10-16T07:28:45;14.50;99.90
21861;DHT22;11095;48.066;8.540;2022-10-16T07:31:13;14.60;99.90
21861;DHT22;11095;48.066;8.540;2022-10-16T07:33:40;14.60;99.90
21861;DHT22;11095;48.066;8.540;2022-10-16T07:36:08;14.60;99.90
21861;DHT22;11095;48.066;8.540;2022-10-16T07:38:34;14.70;99.90
21861;DHT22;11095;48.066;8.540;2022-10-16T07:41:05;14.70;99.90
21861;DHT22;11095;48.066;8.540;2022-10-16T07:43:31;14.80;99.90
21861;DHT22;11095;48.066;8.540;2022-10-16T07:45:57;14.80;99.90
21861;DHT22;11095;48.066;8.540;2022-10-16T07:48:28;14.80;99.90
21861;DHT22;11095;48.066;8.540;2022-10-16T07:51:00;14.80;99.90
21861;DHT22;11095;48.066;8.540;2022-10-16T07:53:26;14.80;99.90
21861;DHT22;11095;48.066;8.540;2022-10-16T07:55:56;14.90;99.90
21861;DHT22;11095;48.066;8.540;2022-10-16T07:58:22;14.90;99.90
21861;DHT22;11095;48.066;8.540;2022-10-16T08:00:48;15.00;99.90
21861;DHT22;11095;48.066;8.540;2022-10-16T08:03:14;15.00;99.90
21861;DHT22;11095;48.066;8.540;2022-10-16T08:05:39;15.10;99.90
21861;DHT22;11095;48.066;8.540;2022-10-16T08:08:05;15.10;99.90
21861;DHT22;11095;48.066;8.540;2022-10-16T08:10:30;15.20;99.90
21861;DHT22;11095;48.066;8.540;2022-10-16T08:12:57;15.30;99.90
21861;DHT22;11095;48.066;8.540;2022-10-16T08:15:23;15.30;99.90
21861;DHT22;11095;48.066;8.540;2022-10-16T08:18:03;15.40;99.90
21861;DHT22;11095;48.066;8.540;2022-10-16T08:20:30;15.40;99.90
21861;DHT22;11095;48.066;8.540;2022-10-16T08:22:56;15.50;99.90
21861;DHT22;11095;48.066;8.540;2022-10-16T08:25:22;15.60;99.90
21861;DHT22;11095;48.066;8.540;2022-10-16T08:27:49;15.70;99.90
21861;DHT22;11095;48.066;8.540;2022-10-16T08:30:15;16.00;99.90
21861;DHT22;11095;48.066;8.540;2022-10-16T08:32:41;16.20;99.90
21861;DHT22;11095;48.066;8.540;2022-10-16T08:35:08;16.50;99.90
21861;DHT22;11095;48.066;8.540;2022-10-16T08:37:35;16.80;99.90
21861;DHT22;11095;48.066;8.540;2022-10-16T08:40:01;16.90;99.90
21861;DHT22;11095;48.066;8.540;2022-10-16T08:51:02;16.80;99.90
21861;DHT22;11095;48.066;8.540;2022-10-16T08:53:41;16.80;99.90
21861;DHT22;11095;48.066;8.540;2022-10-16T08:56:08;16.80;99.90
21861;DHT22;11095;48.066;8.540;2022-10-16T08:58:34;16.80;99.90
21861;DHT22;11095;48.066;8.540;2022-10-16T09:01:16;16.90;99.90
21861;DHT22;11095;48.066;8.540;2022-10-16T09:06:45;17.00;99.90
21861;DHT22;11095;48.066;8.540;2022-10-16T09:09:37;17.10;99.90
21861;DHT22;11095;48.066;8.540;2022-10-16T09:20:14;17.40;99.90
21861;DHT22;11095;48.066;8.540;2022-10-16T09:22:42;17.40;99.90
21861;DHT22;11095;48.066;8.540;2022-10-16T09:25:13;17.40;99.90
21861;DHT22;11095;48.066;8.540;2022-10-16T09:27:40;17.50;99.90
21861;DHT22;11095;48.066;8.540;2022-10-16T09:30:14;17.70;99.90
21861;DHT22;11095;48.066;8.540;2022-10-16T09:32:42;17.80;99.90
21861;DHT22;11095;48.066;8.540;2022-10-16T09:35:15;17.90;99.90
21861;DHT22;11095;48.066;8.540;2022-10-16T09:37:44;18.00;99.90
21861;DHT22;11095;48.066;8.540;2022-10-16T09:40:28;18.10;99.90
21861;DHT22;11095;48.066;8.540;2022-10-16T09:46:39;18.30;99.90
21861;DHT22;11095;48.066;8.540;2022-10-16T09:48:49;18.50;99.90
21861;DHT22;11095;48.066;8.540;2022-10-16T09:51:34;18.70;99.90
21861;DHT22;11095;48.066;8.540;2022-10-16T09:56:33;19.20;99.90
21861;DHT22;11095;48.066;8.540;2022-10-16T09:59:08;19.60;99.90
21861;DHT22;11095;48.066;8.540;2022-10-16T10:01:38;19.90;99.90
21861;DHT22;11095;48.066;8.540;2022-10-16T10:04:05;19.90;99.90
21861;DHT22;11095;48.066;8.540;2022-10-16T10:06:34;20.00;99.90
21861;DHT22;11095;48.066;8.540;2022-10-16T10:09:25;20.20;99.90
21861;DHT22;11095;48.066;8.540;2022-10-16T10:11:59;20.50;99.90
21861;DHT22;11095;48.066;8.540;2022-10-16T10:14:39;21.00;99.90
21861;DHT22;11095;48.066;8.540;2022-10-16T10:17:12;21.50;99.90
21861;DHT22;11095;48.066;8.540;2022-10-16T10:19:39;21.90;99.90
21861;DHT22;11095;48.066;8.540;2022-10-16T10:24:57;23.00;99.90
21861;DHT22;11095;48.066;8.540;2022-10-16T10:30:26;23.80;99.90
21861;DHT22;11095;48.066;8.540;2022-10-16T10:38:48;25.60;99.90
21861;DHT22;11095;48.066;8.540;2022-10-16T10:46:58;24.90;99.90
21861;DHT22;11095;48.066;8.540;2022-10-16T10:50:26;24.30;99.90
21861;DHT22;11095;48.066;8.540;2022-10-16T11:06:10;23.20;99.90
21861;DHT22;11095;48.066;8.540;2022-10-16T11:08:49;23.20;99.90
21861;DHT22;11095;48.066;8.540;2022-10-16T11:14:03;23.10;99.90
21861;DHT22;11095;48.066;8.540;2022-10-16T11:16:30;23.00;99.90
21861;DHT22;11095;48.066;8.540;2022-10-16T11:21:43;22.70;99.90
21861;DHT22;11095;48.066;8.540;2022-10-16T11:24:14;22.60;99.90
21861;DHT22;11095;48.066;8.540;2022-10-16T11:26:42;22.60;99.90
21861;DHT22;11095;48.066;8.540;2022-10-16T11:29:24;22.60;99.90
21861;DHT22;11095;48.066;8.540;2022-10-16T11:31:55;22.70;99.90
21861;DHT22;11095;48.066;8.540;2022-10-16T11:34:50;22.60;99.90
21861;DHT22;11095;48.066;8.540;2022-10-16T11:37:33;22.30;99.90
21861;DHT22;11095;48.066;8.540;2022-10-16T11:40:10;22.00;99.90
21861;DHT22;11095;48.066;8.540;2022-10-16T11:42:46;22.00;99.90
21861;DHT22;11095;48.066;8.540;2022-10-16T11:48:18;21.90;99.90
21861;DHT22;11095;48.066;8.540;2022-10-16T11:50:50;21.90;99.90
21861;DHT22;11095;48.066;8.540;2022-10-16T11:55:45;22.10;99.90
21861;DHT22;11095;48.066;8.540;2022-10-16T12:01:28;22.10;99.90
21861;DHT22;11095;48.066;8.540;2022-10-16T12:09:31;22.30;99.90
21861;DHT22;11095;48.066;8.540;2022-10-16T12:11:57;22.30;99.90
21861;DHT22;11095;48.066;8.540;2022-10-16T12:14:34;22.30;99.90
21861;DHT22;11095;48.066;8.540;2022-10-16T12:17:04;22.20;99.90
21861;DHT22;11095;48.066;8.540;2022-10-16T12:20:01;22.20;99.90
21861;DHT22;11095;48.066;8.540;2022-10-16T12:23:27;22.10;99.90
21861;DHT22;11095;48.066;8.540;2022-10-16T12:25:37;22.00;99.90
21861;DHT22;11095;48.066;8.540;2022-10-16T12:30:41;22.00;99.90
21861;DHT22;11095;48.066;8.540;2022-10-16T12:33:24;21.90;99.90
21861;DHT22;11095;48.066;8.540;2022-10-16T12:35:50;21.90;99.90
21861;DHT22;11095;48.066;8.540;2022-10-16T12:38:46;22.10;99.90
21861;DHT22;11095;48.066;8.540;2022-10-16T12:41:12;22.20;99.90
21861;DHT22;11095;48.066;8.540;2022-10-16T12:43:49;22.20;99.90
21861;DHT22;11095;48.066;8.540;2022-10-16T12:48:42;22.40;99.90
21861;DHT22;11095;48.066;8.540;2022-10-16T12:54:19;22.70;99.90
21861;DHT22;11095;48.066;8.540;2022-10-16T13:04:58;22.90;99.90
21861;DHT22;11095;48.066;8.540;2022-10-16T13:13:31;23.20;99.90
21861;DHT22;11095;48.066;8.540;2022-10-16T13:24:29;23.50;99.90
21861;DHT22;11095;48.066;8.540;2022-10-16T13:29:38;23.40;99.90
21861;DHT22;11095;48.066;8.540;2022-10-16T13:32:10;23.50;99.90
21861;DHT22;11095;48.066;8.540;2022-10-16T13:34:47;23.50;99.90
21861;DHT22;11095;48.066;8.540;2022-10-16T13:37:21;23.50;99.90
21861;DHT22;11095;48.066;8.540;2022-10-16T13:39:48;23.50;99.90
21861;DHT22;11095;48.066;8.540;2022-10-16T13:42:22;23.50;99.90
21861;DHT22;11095;48.066;8.540;2022-10-16T13:44:53;23.60;99.90
21861;DHT22;11095;48.066;8.540;2022-10-16T13:47:24;23.50;99.90
21861;DHT22;11095;48.066;8.540;2022-10-16T13:50:12;23.50;99.90
21861;DHT22;11095;48.066;8.540;2022-10-16T13:52:38;23.50;99.90
21861;DHT22;11095;48.066;8.540;2022-10-16T13:55:12;23.50;99.90
21861;DHT22;11095;48.066;8.540;2022-10-16T13:57:38;23.30;99.90
21861;DHT22;11095;48.066;8.540;2022-10-16T14:00:21;23.10;99.90
21861;DHT22;11095;48.066;8.540;2022-10-16T14:03:02;22.80;99.90
21861;DHT22;11095;48.066;8.540;2022-10-16T14:05:28;22.80;99.90
21861;DHT22;11095;48.066;8.540;2022-10-16T14:07:55;22.80;99.90
21861;DHT22;11095;48.066;8.540;2022-10-16T14:10:25;22.70;99.90
21861;DHT22;11095;48.066;8.540;2022-10-16T14:13:01;22.80;99.90
21861;DHT22;11095;48.066;8.540;2022-10-16T14:15:30;22.90;99.90
21861;DHT22;11095;48.066;8.540;2022-10-16T14:17:57;22.90;99.90
21861;DHT22;11095;48.066;8.540;2022-10-16T14:20:29;23.00;99.90
21861;DHT22;11095;48.066;8.540;2022-10-16T14:23:04;23.00;99.90
21861;DHT22;11095;48.066;8.540;2022-10-16T14:25:31;23.00;99.90
21861;DHT22;11095;48.066;8.540;2022-10-16T14:30:36;22.90;99.90
21861;DHT22;11095;48.066;8.540;2022-10-16T14:33:04;22.80;99.90
21861;DHT22;11095;48.066;8.540;2022-10-16T14:35:36;22.60;99.90
21861;DHT22;11095;48.066;8.540;2022-10-16T14:38:03;22.40;99.90
21861;DHT22;11095;48.066;8.540;2022-10-16T14:40:35;22.40;99.90
21861;DHT22;11095;48.066;8.540;2022-10-16T14:43:03;22.40;99.90
21861;DHT22;11095;48.066;8.540;2022-10-16T14:45:32;22.30;99.90
21861;DHT22;11095;48.066;8.540;2022-10-16T14:48:04;22.20;99.90
21861;DHT22;11095;48.066;8.540;2022-10-16T14:50:31;22.20;99.90
21861;DHT22;11095;48.066;8.540;2022-10-16T14:52:57;22.20;99.90
21861;DHT22;11095;48.066;8.540;2022-10-16T14:55:24;22.10;99.90
21861;DHT22;11095;48.066;8.540;2022-10-16T14:57:50;22.00;99.90
21861;DHT22;11095;48.066;8.540;2022-10-16T15:00:19;22.00;99.90
21861;DHT22;11095;48.066;8.540;2022-10-16T15:02:47;21.90;99.90
21861;DHT22;11095;48.066;8.540;2022-10-16T15:05:25;21.80;99.90
21861;DHT22;11095;48.066;8.540;2022-10-16T15:07:55;21.80;99.90
21861;DHT22;11095;48.066;8.540;2022-10-16T15:10:23;21.60;99.90
21861;DHT22;11095;48.066;8.540;2022-10-16T15:12:49;21.50;99.90
21861;DHT22;11095;48.066;8.540;2022-10-16T15:15:34;21.40;99.90
21861;DHT22;11095;48.066;8.540;2022-10-16T15:18:00;21.30;99.90
21861;DHT22;11095;48.066;8.540;2022-10-16T15:20:35;21.30;99.90
21861;DHT22;11095;48.066;8.540;2022-10-16T15:23:03;21.20;99.90
21861;DHT22;11095;48.066;8.540;2022-10-16T15:25:41;21.20;99.90
21861;DHT22;11095;48.066;8.540;2022-10-16T15:28:08;21.20;99.90
21861;DHT22;11095;48.066;8.540;2022-10-16T15:30:34;21.20;99.90
21861;DHT22;11095;48.066;8.540;2022-10-16T15:33:01;21.10;99.90
21861;DHT22;11095;48.066;8.540;2022-10-16T15:35:27;21.00;99.90
21861;DHT22;11095;48.066;8.540;2022-10-16T15:37:53;20.90;99.90
21861;DHT22;11095;48.066;8.540;2022-10-16T15:40:20;20.90;99.90
21861;DHT22;11095;48.066;8.540;2022-10-16T15:42:46;20.80;99.90
21861;DHT22;11095;48.066;8.540;2022-10-16T15:45:12;20.80;99.90
21861;DHT22;11095;48.066;8.540;2022-10-16T15:47:38;20.70;99.90
21861;DHT22;11095;48.066;8.540;2022-10-16T15:50:05;20.60;99.90
21861;DHT22;11095;48.066;8.540;2022-10-16T15:52:31;20.50;99.90
21861;DHT22;11095;48.066;8.540;2022-10-16T15:54:58;20.40;99.90
21861;DHT22;11095;48.066;8.540;2022-10-16T15:57:23;20.30;99.90
21861;DHT22;11095;48.066;8.540;2022-10-16T15:59:49;20.20;99.90
21861;DHT22;11095;48.066;8.540;2022-10-16T16:02:15;20.10;99.90
21861;DHT22;11095;48.066;8.540;2022-10-16T16:04:41;20.00;99.90
21861;DHT22;11095;48.066;8.540;2022-10-16T16:07:07;19.90;99.90
21861;DHT22;11095;48.066;8.540;2022-10-16T16:09:33;19.80;99.90
21861;DHT22;11095;48.066;8.540;2022-10-16T16:11:59;19.60;99.90
21861;DHT22;11095;48.066;8.540;2022-10-16T16:14:27;19.60;99.90
21861;DHT22;11095;48.066;8.540;2022-10-16T16:16:54;19.40;99.90
21861;DHT22;11095;48.066;8.540;2022-10-16T16:19:20;19.30;99.90
21861;DHT22;11095;48.066;8.540;2022-10-16T16:21:47;19.20;99.90
21861;DHT22;11095;48.066;8.540;2022-10-16T16:24:13;19.00;99.90
21861;DHT22;11095;48.066;8.540;2022-10-16T16:26:38;18.90;99.90
21861;DHT22;11095;48.066;8.540;2022-10-16T16:29:14;18.80;99.90
21861;DHT22;11095;48.066;8.540;2022-10-16T16:31:41;18.70;99.90
21861;DHT22;11095;48.066;8.540;2022-10-16T16:34:07;18.50;99.90
21861;DHT22;11095;48.066;8.540;2022-10-16T16:36:34;18.40;99.90
21861;DHT22;11095;48.066;8.540;2022-10-16T16:39:00;18.30;99.90
21861;DHT22;11095;48.066;8.540;2022-10-16T16:41:27;18.20;99.90
21861;DHT22;11095;48.066;8.540;2022-10-16T16:43:54;18.00;99.90
21861;DHT22;11095;48.066;8.540;2022-10-16T16:46:20;17.90;99.90
21861;DHT22;11095;48.066;8.540;2022-10-16T16:48:46;17.80;99.90
21861;DHT22;11095;48.066;8.540;2022-10-16T16:51:14;17.70;99.90
21861;DHT22;11095;48.066;8.540;2022-10-16T16:53:48;17.60;99.90
21861;DHT22;11095;48.066;8.540;2022-10-16T16:56:14;17.40;99.90
21861;DHT22;11095;48.066;8.540;2022-10-16T16:58:39;17.30;99.90
21861;DHT22;11095;48.066;8.540;2022-10-16T17:01:05;17.20;99.90
21861;DHT22;11095;48.066;8.540;2022-10-16T17:03:34;17.20;99.90
21861;DHT22;11095;48.066;8.540;2022-10-16T17:06:05;17.10;99.90
21861;DHT22;11095;48.066;8.540;2022-10-16T17:08:32;17.10;99.90
21861;DHT22;11095;48.066;8.540;2022-10-16T17:10:58;17.00;99.90
21861;DHT22;11095;48.066;8.540;2022-10-16T17:13:26;16.80;99.90
21861;DHT22;11095;48.066;8.540;2022-10-16T17:15:52;16.70;99.90
21861;DHT22;11095;48.066;8.540;2022-10-16T17:18:20;16.60;99.90
21861;DHT22;11095;48.066;8.540;2022-10-16T17:20:46;16.50;99.90
21861;DHT22;11095;48.066;8.540;2022-10-16T17:23:13;16.30;99.90
21861;DHT22;11095;48.066;8.540;2022-10-16T17:25:40;16.20;99.90
21861;DHT22;11095;48.066;8.540;2022-10-16T17:28:07;16.20;99.90
21861;DHT22;11095;48.066;8.540;2022-10-16T17:30:33;16.10;99.90
21861;DHT22;11095;48.066;8.540;2022-10-16T17:33:00;16.00;99.90
21861;DHT22;11095;48.066;8.540;2022-10-16T17:35:26;15.90;99.90
21861;DHT22;11095;48.066;8.540;2022-10-16T17:37:52;15.70;99.90
21861;DHT22;11095;48.066;8.540;2022-10-16T17:40:18;15.60;99.90
21861;DHT22;11095;48.066;8.540;2022-10-16T17:42:44;15.50;99.90
21861;DHT22;11095;48.066;8.540;2022-10-16T17:45:10;15.40;99.90
21861;DHT22;11095;48.066;8.540;2022-10-16T17:47:36;15.30;99.90
21861;DHT22;11095;48.066;8.540;2022-10-16T17:50:03;15.20;99.90